Time;durP1;ratioP1;P1;durP2;ratioP2;P2;SDS_P1;SDS_P2;PMS_P1;PMS_P2;Temp;Humidity;BMP_temperature;BMP_pressure;BME280_temperature;BME280_humidity;BME280_pressure;Samples;Min_cycle;Max_cycle;Signal;HPM_P1;HPM_P2
2022/10/14 00:02:19;;;;;;;10.38;9.35;;;16.60;99.90;;;;;;5093100;28;20192;-85
2022/10/14 00:04:45;;;;;;;10.55;8.68;;;16.50;99.90;;;;;;5093279;28;20166;-85
2022/10/14 00:07:10;;;;;;;15.50;9.18;;;16.40;99.90;;;;;;5094611;28;20170;-82
2022/10/14 00:09:38;;;;;;;10.77;9.48;;;16.30;99.90;;;;;;5093162;28;20655;-88
2022/10/14 00:12:04;;;;;;;9.13;8.32;;;16.20;99.90;;;;;;5093982;28;20188;-86
2022/10/14 00:14:29;;;;;;;9.75;8.82;;;16.30;99.90;;;;;;5094404;28;20170;-86
2022/10/14 00:16:55;;;;;;;9.70;8.80;;;16.40;99.90;;;;;;5093210;28;20208;-85
2022/10/14 00:19:21;;;;;;;9.65;8.75;;;16.20;99.90;;;;;;5092946;28;20202;-81
2022/10/14 00:21:46;;;;;;;10.07;9.18;;;16.20;99.90;;;;;;5093447;28;20642;-84
2022/10/14 00:24:14;;;;;;;8.55;7.72;;;16.30;99.90;;;;;;5094755;28;20635;-85
2022/10/14 00:26:40;;;;;;;10.38;9.48;;;16.40;99.90;;;;;;5094919;28;20209;-85
2022/10/14 00:29:11;;;;;;;10.02;9.13;;;16.40;99.90;;;;;;5093865;28;20240;-86
2022/10/14 00:31:37;;;;;;;9.85;9.05;;;16.50;99.90;;;;;;5093803;28;20176;-85
2022/10/14 00:34:03;;;;;;;10.85;9.30;;;16.40;99.90;;;;;;5093828;28;20245;-85
2022/10/14 00:36:29;;;;;;;9.23;8.45;;;16.50;99.90;;;;;;5093800;28;20240;-85
2022/10/14 00:38:54;;;;;;;9.98;9.00;;;16.60;99.90;;;;;;5093953;28;20162;-85
2022/10/14 00:41:27;;;;;;;9.60;8.70;;;16.60;99.90;;;;;;5093111;28;20162;-81
2022/10/14 00:43:59;;;;;;;13.30;8.95;;;16.60;99.90;;;;;;5092656;28;20177;-83
2022/10/14 00:46:28;;;;;;;9.75;8.82;;;16.50;99.90;;;;;;5093272;28;20269;-81
2022/10/14 00:48:55;;;;;;;11.80;8.90;;;16.40;99.90;;;;;;5093354;28;20208;-85
2022/10/14 00:51:21;;;;;;;8.77;7.20;;;16.30;99.90;;;;;;5092166;28;20170;-82
2022/10/14 00:53:47;;;;;;;8.82;8.02;;;16.30;99.90;;;;;;5092104;28;20177;-84
2022/10/14 00:56:18;;;;;;;9.57;8.48;;;16.40;99.90;;;;;;5091762;28;20556;-82
2022/10/14 00:58:44;;;;;;;8.77;7.80;;;16.40;99.90;;;;;;5093583;28;20158;-82
2022/10/14 01:01:10;;;;;;;8.80;8.00;;;16.40;99.90;;;;;;5092076;28;20635;-81
2022/10/14 01:03:36;;;;;;;10.57;8.45;;;16.40;99.90;;;;;;5091877;28;20222;-82
2022/10/14 01:06:21;;;;;;;9.27;8.32;;;16.60;99.90;;;;;;5092080;28;20242;-81
2022/10/14 01:09:02;;;;;;;10.55;8.63;;;16.70;99.90;;;;;;5093055;28;20173;-82
2022/10/14 01:11:59;;;;;;;14.00;8.68;;;16.70;99.90;;;;;;5093169;28;20589;-82
2022/10/14 01:14:35;;;;;;;13.45;9.35;;;16.70;99.90;;;;;;5064145;28;20189;-83
2022/10/14 01:17:18;;;;;;;9.88;8.85;;;16.50;99.90;;;;;;5093032;28;20296;-84
2022/10/14 01:20:23;;;;;;;9.27;8.48;;;16.40;99.90;;;;;;5093187;28;20169;-84
2022/10/14 01:23:13;;;;;;;9.52;8.52;;;16.10;99.90;;;;;;5091703;28;20537;-84
2022/10/14 01:26:18;;;;;;;11.50;8.63;;;16.20;99.90;;;;;;5093139;28;20670;-84
2022/10/14 01:29:12;;;;;;;9.35;8.35;;;16.20;99.90;;;;;;5093274;28;20196;-84
2022/10/14 01:31:44;;;;;;;11.45;9.18;;;16.40;99.90;;;;;;5091543;28;20231;-83
2022/10/14 01:34:12;;;;;;;9.50;8.35;;;16.30;99.90;;;;;;5092923;28;20512;-82
2022/10/14 01:36:44;;;;;;;9.35;8.45;;;16.10;99.90;;;;;;5093417;28;20194;-81
2022/10/14 01:39:16;;;;;;;10.45;8.98;;;16.10;99.90;;;;;;5092177;28;20257;-83
2022/10/14 01:41:50;;;;;;;9.02;8.23;;;16.30;99.90;;;;;;5092456;28;20189;-85
2022/10/14 01:44:19;;;;;;;9.30;8.50;;;16.40;99.90;;;;;;5092299;28;20170;-84
2022/10/14 01:46:51;;;;;;;9.35;8.45;;;16.40;99.90;;;;;;5094656;28;20197;-86
2022/10/14 01:49:50;;;;;;;8.95;8.13;;;16.20;99.90;;;;;;5104925;28;20170;-85
2022/10/14 01:52:21;;;;;;;9.45;8.57;;;16.30;99.90;;;;;;5100105;28;20174;-87
2022/10/14 01:54:50;;;;;;;9.40;8.55;;;16.40;99.90;;;;;;5100486;28;20161;-85
2022/10/14 01:57:21;;;;;;;9.88;8.93;;;16.50;99.90;;;;;;5098476;28;20209;-85
2022/10/14 01:59:50;;;;;;;14.40;8.95;;;16.60;99.90;;;;;;5103237;28;20162;-85
2022/10/14 02:02:17;;;;;;;9.35;8.50;;;16.50;99.90;;;;;;5104932;28;20199;-87
2022/10/14 02:04:43;;;;;;;11.75;8.80;;;16.50;99.90;;;;;;5099233;28;20162;-86
2022/10/14 02:07:21;;;;;;;10.65;9.15;;;16.50;99.90;;;;;;5102475;28;20261;-83
2022/10/14 02:10:10;;;;;;;10.15;9.13;;;16.40;99.90;;;;;;5103531;28;20193;-87
2022/10/14 02:12:41;;;;;;;9.23;8.15;;;16.40;99.90;;;;;;5104208;28;20734;-85
2022/10/14 02:15:25;;;;;;;14.73;9.20;;;16.40;99.90;;;;;;5109270;28;20181;-82
2022/10/14 02:18:11;;;;;;;9.73;8.80;;;16.40;99.90;;;;;;5104318;28;20251;-82
2022/10/14 02:20:56;;;;;;;9.75;8.05;;;16.40;99.90;;;;;;5095783;28;20227;-82
2022/10/14 02:23:50;;;;;;;10.73;9.38;;;16.40;99.90;;;;;;5095994;28;20170;-82
2022/10/14 02:26:17;;;;;;;11.60;8.80;;;16.40;99.90;;;;;;5089590;28;20209;-83
2022/10/14 02:28:45;;;;;;;9.73;8.73;;;16.50;99.90;;;;;;5096536;28;20620;-81
2022/10/14 02:31:14;;;;;;;10.27;9.25;;;16.60;99.90;;;;;;5102469;28;20188;-84
2022/10/14 02:33:43;;;;;;;10.13;9.20;;;16.60;99.90;;;;;;5109365;28;20166;-84
2022/10/14 02:36:11;;;;;;;11.13;8.68;;;16.60;99.90;;;;;;5100598;28;20211;-86
2022/10/14 02:38:39;;;;;;;9.38;8.57;;;16.40;99.90;;;;;;5096814;28;20189;-87
2022/10/14 02:41:11;;;;;;;10.65;8.95;;;16.40;99.90;;;;;;5096041;28;20174;-86
2022/10/14 02:43:37;;;;;;;11.85;9.88;;;16.30;99.90;;;;;;5108046;28;20215;-83
2022/10/14 02:46:04;;;;;;;10.00;9.02;;;16.40;99.90;;;;;;5106631;28;20182;-83
2022/10/14 02:48:30;;;;;;;10.57;9.30;;;16.40;99.90;;;;;;5107861;28;20173;-82
2022/10/14 02:50:55;;;;;;;9.55;7.97;;;16.50;99.90;;;;;;5105944;28;20166;-84
2022/10/14 02:53:21;;;;;;;9.45;8.55;;;16.50;99.90;;;;;;5105939;28;20224;-84
2022/10/14 02:55:47;;;;;;;9.98;8.95;;;16.50;99.90;;;;;;5104732;28;20181;-83
2022/10/14 02:58:12;;;;;;;8.93;8.05;;;16.50;99.90;;;;;;5100086;28;20202;-86
2022/10/14 03:00:38;;;;;;;9.55;8.63;;;16.40;99.90;;;;;;5094796;28;20168;-86
2022/10/14 03:03:04;;;;;;;13.13;8.70;;;16.50;99.90;;;;;;5095352;28;20808;-85
2022/10/14 03:05:29;;;;;;;9.27;8.45;;;16.60;99.90;;;;;;5093672;28;20185;-86
2022/10/14 03:07:55;;;;;;;10.25;9.13;;;16.50;99.90;;;;;;5094581;28;20222;-85
2022/10/14 03:10:21;;;;;;;10.90;8.27;;;16.50;99.90;;;;;;5095463;28;20203;-86
2022/10/14 03:12:46;;;;;;;10.75;9.02;;;16.30;99.90;;;;;;5057926;23;20281;-78
2022/10/14 03:15:12;;;;;;;11.10;9.80;;;16.30;99.90;;;;;;5040067;28;20179;-78
2022/10/14 03:17:38;;;;;;;17.38;9.38;;;16.40;99.90;;;;;;5054551;28;20734;-78
2022/10/14 03:20:05;;;;;;;12.50;9.98;;;16.50;99.90;;;;;;5056593;28;20265;-77
2022/10/14 03:22:30;;;;;;;10.82;9.80;;;16.40;99.90;;;;;;5055104;28;20167;-89
2022/10/14 03:24:56;;;;;;;11.25;10.23;;;16.10;99.90;;;;;;5056305;28;20668;-91
2022/10/14 03:27:22;;;;;;;10.05;9.05;;;16.10;99.90;;;;;;5056272;28;20171;-84
2022/10/14 03:29:47;;;;;;;10.43;9.40;;;16.30;99.90;;;;;;5056502;28;20166;-89
2022/10/14 03:32:13;;;;;;;13.27;9.20;;;16.10;99.90;;;;;;5054484;28;20170;-78
2022/10/14 03:34:38;;;;;;;10.52;8.55;;;16.00;99.90;;;;;;5053621;28;20246;-78
2022/10/14 03:37:04;;;;;;;11.70;9.57;;;16.00;99.90;;;;;;5053557;28;20313;-78
2022/10/14 03:39:30;;;;;;;10.77;8.82;;;16.10;99.90;;;;;;5053866;28;20520;-94
2022/10/14 03:41:55;;;;;;;11.00;9.90;;;16.20;99.90;;;;;;5052518;28;20233;-78
2022/10/14 03:44:21;;;;;;;10.60;8.88;;;16.30;99.90;;;;;;5053460;28;20167;-78
2022/10/14 03:46:47;;;;;;;12.63;9.38;;;16.30;99.90;;;;;;5053448;28;20191;-79
2022/10/14 03:49:13;;;;;;;13.00;10.00;;;16.30;99.90;;;;;;5053582;28;20700;-79
2022/10/14 03:51:38;;;;;;;15.35;8.48;;;16.30;99.90;;;;;;5053657;28;20198;-78
2022/10/14 03:54:04;;;;;;;10.27;8.80;;;16.30;99.90;;;;;;5053404;28;20163;-78
2022/10/14 03:56:29;;;;;;;9.18;8.38;;;16.30;99.90;;;;;;5052920;28;20195;-77
2022/10/14 03:58:55;;;;;;;9.60;8.60;;;16.30;99.90;;;;;;5053401;28;20167;-90
2022/10/14 04:01:21;;;;;;;10.15;8.23;;;16.30;99.90;;;;;;5053630;28;20500;-78
2022/10/14 04:03:47;;;;;;;9.60;8.57;;;16.30;99.90;;;;;;5053841;28;20629;-78
2022/10/14 04:06:13;;;;;;;9.05;8.23;;;16.30;99.90;;;;;;5053448;28;20191;-82
2022/10/14 04:08:39;;;;;;;9.25;7.95;;;16.30;99.90;;;;;;5054854;28;20171;-78
2022/10/14 04:11:05;;;;;;;8.95;8.07;;;16.30;99.90;;;;;;5053406;28;20235;-78
2022/10/14 04:13:31;;;;;;;9.48;8.40;;;16.30;99.90;;;;;;5055969;28;20732;-78
2022/10/14 04:16:01;;;;;;;8.95;8.15;;;16.10;99.90;;;;;;5061002;28;20191;-79
2022/10/14 04:18:26;;;;;;;15.27;9.27;;;16.10;99.90;;;;;;5063548;28;20222;-79
2022/10/14 04:20:53;;;;;;;10.63;8.65;;;16.20;99.90;;;;;;5052779;28;20513;-82
2022/10/14 04:23:19;;;;;;;12.20;9.38;;;16.10;99.90;;;;;;5053120;28;20177;-79
2022/10/14 04:25:45;;;;;;;9.30;8.50;;;16.10;99.90;;;;;;5053036;28;20692;-81
2022/10/14 04:28:10;;;;;;;11.02;9.57;;;16.10;99.90;;;;;;5053219;28;20197;-89
2022/10/14 04:30:36;;;;;;;11.90;8.60;;;16.20;99.90;;;;;;5053287;28;20175;-79
2022/10/14 04:33:02;;;;;;;9.27;8.48;;;16.30;99.90;;;;;;5053148;28;20163;-79
2022/10/14 04:35:27;;;;;;;9.55;8.65;;;16.30;99.90;;;;;;5051674;28;20661;-78
2022/10/14 04:37:53;;;;;;;12.20;8.63;;;16.30;99.90;;;;;;5053072;28;20681;-94
2022/10/14 04:40:23;;;;;;;9.48;8.30;;;16.10;99.90;;;;;;5053903;28;20267;-79
2022/10/14 04:42:48;;;;;;;11.43;9.40;;;16.20;99.90;;;;;;5054175;28;20171;-78
2022/10/14 04:45:14;;;;;;;10.60;9.38;;;16.20;99.90;;;;;;5054169;28;20190;-78
2022/10/14 04:47:40;;;;;;;14.45;8.60;;;16.10;99.90;;;;;;5054969;28;20268;-78
2022/10/14 04:50:06;;;;;;;14.35;9.10;;;16.10;99.90;;;;;;5057369;28;20182;-79
2022/10/14 04:52:32;;;;;;;10.45;9.18;;;16.10;99.90;;;;;;5052355;28;20266;-78
2022/10/14 04:54:57;;;;;;;11.95;8.73;;;16.10;99.90;;;;;;5053473;28;20195;-78
2022/10/14 04:57:23;;;;;;;11.52;9.63;;;16.00;99.90;;;;;;5053337;28;20203;-79
2022/10/14 04:59:48;;;;;;;17.00;9.85;;;16.20;99.90;;;;;;5053043;28;20650;-79
2022/10/14 05:02:14;;;;;;;12.95;9.23;;;16.30;99.90;;;;;;5053297;28;20178;-79
2022/10/14 05:04:39;;;;;;;11.15;9.18;;;16.30;99.90;;;;;;5058189;28;20233;-78
2022/10/14 05:07:05;;;;;;;14.57;9.50;;;16.30;99.90;;;;;;5052716;28;20277;-79
2022/10/14 05:09:30;;;;;;;12.20;9.60;;;16.30;99.90;;;;;;5053732;28;20167;-79
2022/10/14 05:11:56;;;;;;;12.68;9.10;;;16.30;99.90;;;;;;5053534;28;20182;-78
2022/10/14 05:14:22;;;;;;;14.82;8.43;;;16.20;99.90;;;;;;5052901;28;20170;-78
2022/10/14 05:16:47;;;;;;;9.35;8.50;;;16.20;99.90;;;;;;5055893;28;20217;-92
2022/10/14 05:19:13;;;;;;;14.88;8.32;;;16.40;99.90;;;;;;5054342;28;20217;-80
2022/10/14 05:21:38;;;;;;;10.27;8.23;;;16.10;99.90;;;;;;5053248;28;20164;-82
2022/10/14 05:24:04;;;;;;;10.40;9.50;;;16.00;99.90;;;;;;5053245;28;20171;-78
2022/10/14 05:26:30;;;;;;;13.10;9.02;;;16.10;99.90;;;;;;5052035;28;20193;-79
2022/10/14 05:28:56;;;;;;;16.27;8.85;;;16.20;99.90;;;;;;5057883;28;20172;-80
2022/10/14 05:31:21;;;;;;;9.95;8.75;;;16.10;99.90;;;;;;5056886;28;20194;-78
2022/10/14 05:33:47;;;;;;;9.57;8.25;;;16.00;99.90;;;;;;5056658;28;20190;-78
2022/10/14 05:36:16;;;;;;;11.43;8.43;;;15.90;99.90;;;;;;5055187;28;20236;-78
2022/10/14 05:38:42;;;;;;;10.32;8.40;;;15.90;99.90;;;;;;5056000;28;20534;-79
2022/10/14 05:41:08;;;;;;;15.23;9.27;;;15.90;99.90;;;;;;5057270;28;20213;-80
2022/10/14 05:43:34;;;;;;;12.93;8.50;;;15.90;99.90;;;;;;5057414;28;20190;-89
2022/10/14 05:46:00;;;;;;;11.07;7.82;;;15.70;99.90;;;;;;5056906;28;20652;-79
2022/10/14 05:48:25;;;;;;;9.75;7.65;;;15.60;99.90;;;;;;5057806;28;20167;-79
2022/10/14 05:50:51;;;;;;;12.27;8.32;;;15.70;99.90;;;;;;5057543;28;20175;-80
2022/10/14 05:53:17;;;;;;;12.02;7.60;;;15.80;99.90;;;;;;5058546;28;20246;-79
2022/10/14 05:55:42;;;;;;;8.82;7.75;;;16.00;99.90;;;;;;5057132;28;20249;-80
2022/10/14 05:58:08;;;;;;;12.15;7.72;;;16.00;99.90;;;;;;5056562;28;20203;-79
2022/10/14 06:00:33;;;;;;;8.45;7.65;;;16.00;99.90;;;;;;5056964;28;20171;-79
2022/10/14 06:02:59;;;;;;;9.95;8.00;;;16.10;99.90;;;;;;5056858;28;20159;-79
2022/10/14 06:05:25;;;;;;;9.10;7.75;;;16.10;99.90;;;;;;5056665;28;20288;-79
2022/10/14 06:07:50;;;;;;;8.60;7.80;;;16.10;99.90;;;;;;5056517;28;20625;-80
2022/10/14 06:10:16;;;;;;;10.27;6.97;;;16.00;99.90;;;;;;5057448;28;20194;-79
2022/10/14 06:12:42;;;;;;;15.32;8.35;;;16.10;99.90;;;;;;5055934;28;20206;-79
2022/10/14 06:15:08;;;;;;;8.65;7.75;;;16.00;99.90;;;;;;5056757;28;20572;-80
2022/10/14 06:17:33;;;;;;;10.40;7.22;;;16.10;99.90;;;;;;5058230;28;20207;-80
2022/10/14 06:19:59;;;;;;;8.25;7.28;;;16.20;99.90;;;;;;5056649;28;20194;-80
2022/10/14 06:22:24;;;;;;;16.60;7.97;;;16.20;99.90;;;;;;5056473;28;20187;-80
2022/10/14 06:24:50;;;;;;;18.75;7.93;;;16.20;99.90;;;;;;5055901;28;20167;-83
2022/10/14 06:27:16;;;;;;;10.85;7.63;;;16.20;99.90;;;;;;5055764;28;20218;-81
2022/10/14 06:29:41;;;;;;;8.45;7.28;;;16.30;99.90;;;;;;5056186;28;20182;-78
2022/10/14 06:32:08;;;;;;;8.30;7.50;;;16.30;99.90;;;;;;5055998;28;20632;-79
2022/10/14 06:34:34;;;;;;;18.50;7.90;;;16.20;99.90;;;;;;5056762;28;20163;-90
2022/10/14 06:37:00;;;;;;;8.85;8.00;;;16.20;99.90;;;;;;5055725;28;20191;-89
2022/10/14 06:39:27;;;;;;;8.65;7.35;;;16.20;99.90;;;;;;5054159;28;20170;-81
2022/10/14 06:41:52;;;;;;;13.30;7.03;;;16.20;99.90;;;;;;5054639;28;20519;-79
2022/10/14 06:44:19;;;;;;;11.18;7.00;;;16.20;99.90;;;;;;5054373;28;20167;-79
2022/10/14 06:46:45;;;;;;;8.50;7.47;;;16.20;99.90;;;;;;5053301;28;20675;-78
2022/10/14 06:49:11;;;;;;;9.13;7.15;;;16.10;99.90;;;;;;5055082;28;20175;-78
2022/10/14 06:51:38;;;;;;;9.25;7.32;;;16.20;99.90;;;;;;5058584;28;20680;-79
2022/10/14 06:54:04;;;;;;;12.68;8.25;;;16.20;99.90;;;;;;5066326;28;20227;-83
2022/10/14 06:56:29;;;;;;;9.65;8.40;;;16.20;99.90;;;;;;5059417;28;20218;-79
2022/10/14 06:58:55;;;;;;;10.30;6.93;;;16.20;99.90;;;;;;5055318;28;20198;-78
2022/10/14 07:01:21;;;;;;;9.10;8.20;;;16.20;99.90;;;;;;5054214;28;20167;-78
2022/10/14 07:03:48;;;;;;;11.38;8.45;;;16.20;99.90;;;;;;5054326;28;20183;-79
2022/10/14 07:06:13;;;;;;;9.15;8.25;;;16.30;99.90;;;;;;5055249;28;20533;-79
2022/10/14 07:08:39;;;;;;;8.18;7.38;;;16.30;99.90;;;;;;5055337;28;20183;-79
2022/10/14 07:11:05;;;;;;;12.65;9.05;;;16.10;99.90;;;;;;5054644;28;20215;-79
2022/10/14 07:13:33;;;;;;;9.35;8.10;;;16.20;99.90;;;;;;5054651;28;20167;-78
2022/10/14 07:15:58;;;;;;;11.35;7.70;;;16.00;99.90;;;;;;5053897;28;20255;-79
2022/10/14 07:18:25;;;;;;;9.13;8.23;;;16.10;99.90;;;;;;5064825;28;20266;-77
2022/10/14 07:20:51;;;;;;;17.30;9.05;;;16.30;99.90;;;;;;5054686;28;20651;-81
2022/10/14 07:23:17;;;;;;;9.20;7.20;;;16.30;99.90;;;;;;5054093;28;20171;-79
2022/10/14 07:25:43;;;;;;;15.23;7.85;;;16.20;99.90;;;;;;5054182;28;20198;-81
2022/10/14 07:28:09;;;;;;;12.10;8.48;;;16.20;99.90;;;;;;5054078;28;20533;-81
2022/10/14 07:30:34;;;;;;;13.82;8.00;;;16.30;99.90;;;;;;5055282;28;20695;-79
2022/10/14 07:33:00;;;;;;;8.77;7.03;;;16.40;99.90;;;;;;5061365;28;20167;-79
2022/10/14 07:35:26;;;;;;;9.80;7.18;;;16.50;99.90;;;;;;5053779;28;20187;-79
2022/10/14 07:37:52;;;;;;;7.85;6.63;;;16.50;99.90;;;;;;5052438;28;20222;-79
2022/10/14 07:40:18;;;;;;;8.75;6.75;;;16.60;99.90;;;;;;5053599;28;20167;-79
2022/10/14 07:42:44;;;;;;;7.80;6.03;;;16.70;99.90;;;;;;5052237;28;20178;-81
2022/10/14 07:45:15;;;;;;;11.40;6.00;;;16.70;99.90;;;;;;5053455;28;20183;-91
2022/10/14 07:47:42;;;;;;;7.32;6.68;;;16.80;99.90;;;;;;5053512;28;20167;-79
2022/10/14 07:50:09;;;;;;;7.35;6.65;;;16.70;99.90;;;;;;5053388;28;20163;-79
2022/10/14 07:52:35;;;;;;;6.55;5.93;;;16.70;99.90;;;;;;5053681;28;20249;-82
2022/10/14 07:55:01;;;;;;;8.82;6.50;;;16.80;99.90;;;;;;5051950;28;20163;-79
2022/10/14 07:57:27;;;;;;;7.22;6.53;;;16.90;99.90;;;;;;5053863;28;20230;-79
2022/10/14 07:59:52;;;;;;;8.20;6.47;;;16.70;99.90;;;;;;5053651;28;20649;-78
2022/10/14 08:02:18;;;;;;;8.07;5.93;;;16.70;99.90;;;;;;5053866;28;20223;-79
2022/10/14 08:04:45;;;;;;;9.95;6.53;;;16.80;99.90;;;;;;5052605;28;20342;-79
2022/10/14 08:07:13;;;;;;;9.50;6.38;;;16.90;99.90;;;;;;5053328;28;20667;-79
2022/10/14 08:09:39;;;;;;;16.00;5.72;;;17.00;99.90;;;;;;5052783;28;20171;-82
2022/10/14 08:12:05;;;;;;;10.90;5.45;;;17.10;99.90;;;;;;5052599;28;20187;-79
2022/10/14 08:14:31;;;;;;;5.65;5.13;;;17.20;99.90;;;;;;5052629;28;20170;-79
2022/10/14 08:16:56;;;;;;;10.18;5.85;;;17.10;99.90;;;;;;5051854;28;20259;-82
2022/10/14 08:19:22;;;;;;;11.55;6.57;;;17.20;99.90;;;;;;5051322;28;20167;-81
2022/10/14 08:21:48;;;;;;;12.25;5.60;;;17.10;99.90;;;;;;5050570;28;20159;-79
2022/10/14 08:24:13;;;;;;;6.28;5.63;;;17.20;99.90;;;;;;5052517;28;20178;-78
2022/10/14 08:26:48;;;;;;;6.28;5.68;;;17.40;99.90;;;;;;5052324;28;20201;-79
2022/10/14 08:29:13;;;;;;;6.95;4.78;;;17.60;99.90;;;;;;5052625;28;20163;-79
2022/10/14 08:31:39;;;;;;;7.82;5.70;;;17.60;99.90;;;;;;5051355;28;20228;-79
2022/10/14 08:34:09;;;;;;;4.85;4.38;;;17.60;99.90;;;;;;5053631;28;20166;-80
2022/10/14 08:36:36;;;;;;;5.57;5.07;;;17.60;99.90;;;;;;5052531;28;20190;-88
2022/10/14 08:39:04;;;;;;;8.00;4.97;;;17.60;99.90;;;;;;5051629;28;20215;-79
2022/10/14 08:41:54;;;;;;;9.10;3.63;;;17.50;99.90;;;;;;5051840;28;20170;-79
2022/10/14 08:44:41;;;;;;;4.55;3.97;;;17.40;99.90;;;;;;5052836;28;20229;-80
2022/10/14 08:47:13;;;;;;;4.43;4.03;;;17.20;99.90;;;;;;5054899;28;20211;-92
2022/10/14 08:50:03;;;;;;;7.55;3.67;;;17.10;99.90;;;;;;5057078;28;20250;-91
2022/10/14 08:52:35;;;;;;;3.90;3.60;;;17.10;99.90;;;;;;5054827;28;20175;-88
2022/10/14 08:55:13;;;;;;;4.93;4.45;;;17.00;99.90;;;;;;5054648;28;20609;-81
2022/10/14 08:57:46;;;;;;;4.65;4.25;;;16.70;99.90;;;;;;5054892;28;20203;-87
2022/10/14 09:00:14;;;;;;;4.78;3.95;;;16.80;99.90;;;;;;5055181;28;20160;-95
2022/10/14 09:02:48;;;;;;;4.38;3.90;;;16.90;99.90;;;;;;5050649;28;20167;-77
2022/10/14 09:05:23;;;;;;;4.45;3.78;;;17.00;99.90;;;;;;5052296;28;20563;-78
2022/10/14 09:07:52;;;;;;;3.85;3.53;;;17.20;99.90;;;;;;5052801;28;20191;-78
2022/10/14 09:10:35;;;;;;;3.55;3.22;;;17.30;99.90;;;;;;5052908;28;20171;-78
2022/10/14 09:13:26;;;;;;;7.22;3.17;;;17.40;99.90;;;;;;5052356;28;20207;-79
2022/10/14 09:16:01;;;;;;;4.07;3.67;;;17.60;99.90;;;;;;5051822;28;20191;-79
2022/10/14 09:18:37;;;;;;;6.60;3.83;;;17.80;99.90;;;;;;5052532;28;20519;-78
2022/10/14 09:21:33;;;;;;;6.95;2.85;;;17.80;99.90;;;;;;5052112;28;20162;-79
2022/10/14 09:24:25;;;;;;;3.35;3.00;;;17.60;99.90;;;;;;5051102;28;20628;-79
2022/10/14 09:26:55;;;;;;;5.72;3.10;;;17.70;99.90;;;;;;5052997;28;20198;-78
2022/10/14 09:29:27;;;;;;;6.00;2.88;;;17.50;99.90;;;;;;5065356;28;20254;-78
2022/10/14 09:31:57;;;;;;;5.78;3.75;;;17.80;99.90;;;;;;5058892;28;20530;-78
2022/10/14 09:34:30;;;;;;;3.22;2.92;;;18.00;99.90;;;;;;5053561;28;20174;-86
2022/10/14 09:37:04;;;;;;;2.92;2.50;;;18.30;99.90;;;;;;5052670;28;20278;-78
2022/10/14 09:39:39;;;;;;;2.53;2.33;;;18.20;99.90;;;;;;5053242;28;20194;-78
2022/10/14 09:42:13;;;;;;;2.75;2.55;;;18.60;99.90;;;;;;5051126;28;20185;-78
2022/10/14 09:44:39;;;;;;;1.85;1.75;;;18.60;99.90;;;;;;5052233;28;20163;-78
2022/10/14 09:47:09;;;;;;;3.65;2.17;;;18.40;99.90;;;;;;5052227;28;20289;-78
2022/10/14 09:49:38;;;;;;;3.55;1.90;;;18.30;99.90;;;;;;5052409;28;20625;-78
2022/10/14 09:52:04;;;;;;;5.60;2.80;;;18.50;99.90;;;;;;5052225;28;20178;-78
2022/10/14 09:54:31;;;;;;;3.65;2.35;;;18.40;99.90;;;;;;5051090;28;20278;-77
2022/10/14 09:57:04;;;;;;;2.97;2.42;;;18.50;99.90;;;;;;5051310;28;20284;-78
2022/10/14 09:59:30;;;;;;;2.88;2.17;;;18.60;99.90;;;;;;5052762;28;20194;-78
2022/10/14 10:02:20;;;;;;;2.78;2.10;;;18.60;99.90;;;;;;5050899;28;20274;-78
2022/10/14 10:04:46;;;;;;;8.98;2.30;;;18.60;99.90;;;;;;5052344;28;20679;-83
2022/10/14 10:07:33;;;;;;;2.50;2.30;;;18.40;99.90;;;;;;5051742;28;20164;-78
2022/10/14 10:10:01;;;;;;;2.60;2.40;;;18.20;99.90;;;;;;5051566;28;20693;-78
2022/10/14 10:12:29;;;;;;;2.92;2.72;;;18.10;99.90;;;;;;5051730;28;20603;-78
2022/10/14 10:14:57;;;;;;;3.35;2.88;;;18.20;99.90;;;;;;5054988;28;20167;-79
2022/10/14 10:17:25;;;;;;;2.60;2.40;;;18.20;99.90;;;;;;5054815;28;20600;-78
2022/10/14 10:20:30;;;;;;;2.60;2.28;;;18.30;99.90;;;;;;5053804;28;20652;-79
2022/10/14 10:22:57;;;;;;;3.03;2.42;;;18.10;99.90;;;;;;5055274;28;20167;-78
2022/10/14 10:25:27;;;;;;;3.40;2.33;;;18.00;99.90;;;;;;5054916;28;20708;-78
2022/10/14 10:27:57;;;;;;;2.63;2.42;;;17.70;99.90;;;;;;5055129;28;20263;-80
2022/10/14 10:30:24;;;;;;;5.05;2.70;;;17.60;99.90;;;;;;5055310;28;20167;-78
2022/10/14 10:33:10;;;;;;;5.93;3.08;;;17.60;99.90;;;;;;5054798;28;20171;-82
2022/10/14 10:35:42;;;;;;;2.90;2.70;;;17.60;99.90;;;;;;5053771;28;20202;-78
2022/10/14 10:38:29;;;;;;;4.38;2.53;;;17.80;99.90;;;;;;5055190;28;20607;-78
2022/10/14 10:41:16;;;;;;;5.00;3.75;;;17.80;99.90;;;;;;5055153;28;20226;-79
2022/10/14 10:44:06;;;;;;;5.45;4.95;;;17.90;99.90;;;;;;5054758;28;20194;-79
2022/10/14 10:46:35;;;;;;;5.95;5.45;;;17.80;99.90;;;;;;5062353;28;20233;-78
2022/10/14 10:49:27;;;;;;;5.57;5.07;;;17.80;99.90;;;;;;5059659;28;20169;-79
2022/10/14 10:52:11;;;;;;;4.65;4.25;;;17.80;99.90;;;;;;5055261;28;20163;-79
2022/10/14 10:54:49;;;;;;;3.47;3.17;;;18.10;99.90;;;;;;5054862;28;20233;-79
2022/10/14 10:57:48;;;;;;;7.13;3.35;;;18.10;99.90;;;;;;5054172;28;20653;-80
2022/10/14 11:00:19;;;;;;;4.03;3.72;;;18.00;99.90;;;;;;5054136;28;20228;-79
2022/10/14 11:03:27;;;;;;;5.32;4.35;;;18.10;99.90;;;;;;5054112;28;20234;-80
2022/10/14 11:06:13;;;;;;;4.18;3.88;;;18.20;99.90;;;;;;5046234;28;20210;-83
2022/10/14 11:12:05;;;;;;;5.13;4.72;;;18.10;99.90;;;;;;5054639;28;20187;-79
2022/10/14 11:14:52;;;;;;;5.15;4.65;;;18.20;99.90;;;;;;5054574;28;20182;-79
2022/10/14 11:17:31;;;;;;;5.00;4.60;;;18.10;99.90;;;;;;5055340;28;20314;-80
2022/10/14 11:20:19;;;;;;;5.13;4.63;;;18.00;99.90;;;;;;5054144;28;20159;-80
2022/10/14 11:23:06;;;;;;;6.25;5.65;;;17.90;99.90;;;;;;5052715;28;20175;-79
2022/10/14 11:25:50;;;;;;;5.93;5.43;;;18.10;99.90;;;;;;5051650;28;20183;-77
2022/10/14 11:28:31;;;;;;;7.63;6.93;;;18.30;99.90;;;;;;5056048;28;20250;-78
2022/10/14 11:31:18;;;;;;;7.32;6.47;;;18.70;99.90;;;;;;5055624;28;20171;-78
2022/10/14 11:34:19;;;;;;;11.68;10.63;;;19.20;99.90;;;;;;5056472;28;20616;-87
2022/10/14 11:36:57;;;;;;;6.07;5.57;;;19.50;99.90;;;;;;5031296;28;20207;-79
2022/10/14 11:39:31;;;;;;;8.13;5.53;;;19.80;99.90;;;;;;5054459;28;20167;-80
2022/10/14 11:42:02;;;;;;;4.55;4.15;;;19.80;99.90;;;;;;5054070;28;20167;-79
2022/10/14 11:44:36;;;;;;;5.88;4.50;;;20.00;99.90;;;;;;5056732;28;20169;-79
2022/10/14 11:47:14;;;;;;;7.05;4.55;;;20.20;99.90;;;;;;5055691;28;20278;-83
2022/10/14 11:49:57;;;;;;;4.10;3.80;;;20.20;99.90;;;;;;5055459;28;20179;-80
2022/10/14 11:52:30;;;;;;;4.88;4.47;;;20.40;99.90;;;;;;5059965;28;20168;-81
2022/10/14 11:55:27;;;;;;;4.15;3.85;;;20.40;99.90;;;;;;5056920;28;20166;-80
2022/10/14 11:58:11;;;;;;;4.38;4.07;;;20.20;99.90;;;;;;5046955;28;20221;-79
2022/10/14 12:00:41;;;;;;;6.18;5.65;;;20.20;99.90;;;;;;5058555;28;20166;-81
2022/10/14 12:03:38;;;;;;;6.03;5.53;;;20.30;99.90;;;;;;5064752;28;20172;-80
2022/10/14 12:06:20;;;;;;;6.07;4.72;;;20.40;99.90;;;;;;5064769;28;20195;-80
2022/10/14 12:09:12;;;;;;;5.55;5.10;;;20.30;99.90;;;;;;5064104;28;20163;-83
2022/10/14 12:12:02;;;;;;;5.70;5.28;;;20.40;99.90;;;;;;5060347;28;20194;-85
2022/10/14 12:14:42;;;;;;;6.05;5.55;;;20.40;99.90;;;;;;5054842;28;20175;-83
2022/10/14 12:17:22;;;;;;;6.30;5.80;;;20.10;99.90;;;;;;5055156;28;20218;-79
2022/10/14 12:19:50;;;;;;;6.00;5.45;;;20.10;99.90;;;;;;5056151;28;20254;-79
2022/10/14 12:22:23;;;;;;;5.82;5.30;;;20.10;99.90;;;;;;5054174;28;20186;-78
2022/10/14 12:25:16;;;;;;;9.10;5.82;;;20.20;99.90;;;;;;5055996;28;20179;-79
2022/10/14 12:27:42;;;;;;;6.15;5.63;;;20.40;99.90;;;;;;5056104;28;20599;-79
2022/10/14 12:30:39;;;;;;;7.80;6.50;;;20.50;99.90;;;;;;5059858;28;20179;-80
2022/10/14 12:33:12;;;;;;;6.32;5.82;;;20.50;99.90;;;;;;5060221;28;20167;-79
2022/10/14 12:35:58;;;;;;;6.80;6.30;;;20.60;99.90;;;;;;5060491;28;20641;-80
2022/10/14 12:38:24;;;;;;;8.10;6.35;;;20.40;99.90;;;;;;5059286;28;20623;-80
2022/10/14 12:40:50;;;;;;;10.10;6.75;;;20.40;99.90;;;;;;5060060;28;20163;-80
2022/10/14 12:43:29;;;;;;;6.65;6.10;;;20.40;99.90;;;;;;5058387;28;20182;-80
2022/10/14 12:46:01;;;;;;;7.70;6.95;;;20.10;99.90;;;;;;5055090;28;20187;-79
2022/10/14 12:48:32;;;;;;;13.63;6.47;;;20.20;99.90;;;;;;5054977;28;20171;-79
2022/10/14 12:51:24;;;;;;;9.15;7.30;;;20.30;99.90;;;;;;5053151;28;20167;-80
2022/10/14 12:53:56;;;;;;;8.70;6.85;;;20.30;99.90;;;;;;5050610;28;20183;-79
2022/10/14 12:56:39;;;;;;;7.82;6.80;;;20.30;99.90;;;;;;5054969;28;20229;-81
2022/10/14 12:59:08;;;;;;;7.00;6.50;;;20.60;99.90;;;;;;5054660;28;20171;-82
2022/10/14 13:01:34;;;;;;;6.75;6.15;;;20.60;99.90;;;;;;5053137;28;20167;-81
2022/10/14 13:04:04;;;;;;;6.70;6.10;;;20.70;99.90;;;;;;5055661;28;20166;-80
2022/10/14 13:06:41;;;;;;;6.47;5.97;;;20.70;99.90;;;;;;5054883;28;20248;-80
2022/10/14 13:09:15;;;;;;;6.53;5.93;;;21.00;99.90;;;;;;5052601;28;20195;-77